createdAt,value
2022-07-29T00:01:49.663Z,2.37
2022-07-29T00:04:16.296Z,2.30
2022-07-29T00:06:42.913Z,6.53
2022-07-29T00:09:09.324Z,2.80
2022-07-29T00:11:35.616Z,2.40
2022-07-29T00:14:01.922Z,2.90
2022-07-29T00:16:28.275Z,1.93
2022-07-29T00:18:54.703Z,2.00
2022-07-29T00:21:21.155Z,2.77
2022-07-29T00:23:47.451Z,2.33
2022-07-29T00:26:13.820Z,1.83
2022-07-29T00:28:40.281Z,1.80
2022-07-29T00:31:06.610Z,2.83
2022-07-29T00:33:33.022Z,2.30
2022-07-29T00:35:59.376Z,3.80
2022-07-29T00:38:25.703Z,2.07
2022-07-29T00:40:52.143Z,2.30
2022-07-29T00:43:18.737Z,2.47
2022-07-29T00:45:45.699Z,2.60
2022-07-29T00:48:12.216Z,2.17
2022-07-29T00:50:39.699Z,2.03
2022-07-29T00:53:09.841Z,2.10
2022-07-29T00:55:36.403Z,2.77
2022-07-29T00:58:03.540Z,2.00
2022-07-29T01:00:30.243Z,2.70
2022-07-29T01:02:56.863Z,2.63
2022-07-29T01:05:49.699Z,4.20
2022-07-29T01:08:15.172Z,2.53
2022-07-29T01:10:43.304Z,5.10
2022-07-29T01:13:10.308Z,3.50
2022-07-29T01:15:49.327Z,2.53
2022-07-29T01:18:29.288Z,2.23
2022-07-29T01:21:18.109Z,2.50
2022-07-29T01:24:05.932Z,2.37
2022-07-29T01:26:59.062Z,2.10
2022-07-29T01:29:25.367Z,1.90
2022-07-29T01:32:04.461Z,2.30
2022-07-29T01:34:39.306Z,2.13
2022-07-29T01:37:24.836Z,4.47
2022-07-29T01:39:55.129Z,2.27
2022-07-29T01:42:28.935Z,2.30
2022-07-29T01:45:00.159Z,1.97
2022-07-29T01:47:35.694Z,2.67
2022-07-29T01:50:06.956Z,2.23
2022-07-29T01:52:42.323Z,2.93
2022-07-29T01:55:14.697Z,2.57
2022-07-29T01:57:42.918Z,2.13
2022-07-29T02:00:09.733Z,2.27
2022-07-29T02:02:44.478Z,3.83
2022-07-29T02:05:13.443Z,2.73
2022-07-29T02:07:41.596Z,2.77
2022-07-29T02:10:09.733Z,2.63
2022-07-29T02:12:37.950Z,2.33
2022-07-29T02:15:06.810Z,2.27
2022-07-29T02:17:46.979Z,3.47
2022-07-29T02:20:13.403Z,2.30
2022-07-29T02:22:41.892Z,2.20
2022-07-29T02:25:13.857Z,2.27
2022-07-29T02:27:40.826Z,2.13
2022-07-29T02:30:08.065Z,2.83
2022-07-29T02:32:38.457Z,2.23
2022-07-29T02:35:09.228Z,2.30
2022-07-29T02:37:37.644Z,2.43
2022-07-29T02:40:05.117Z,2.97
2022-07-29T02:42:33.085Z,2.13
2022-07-29T02:44:59.515Z,2.77
2022-07-29T02:47:42.063Z,3.33
2022-07-29T02:50:40.133Z,2.90
2022-07-29T02:53:13.614Z,2.00
2022-07-29T02:56:02.755Z,2.40
2022-07-29T02:58:33.147Z,2.20
2022-07-29T03:01:04.835Z,2.27
2022-07-29T03:03:35.767Z,2.03
2022-07-29T03:06:04.012Z,2.50
2022-07-29T03:08:30.961Z,2.60
2022-07-29T03:10:58.229Z,3.00
2022-07-29T03:13:25.390Z,2.80
2022-07-29T03:15:52.978Z,3.10
2022-07-29T03:18:19.549Z,2.73
2022-07-29T03:20:46.001Z,7.20
2022-07-29T03:23:12.383Z,2.40
2022-07-29T03:25:38.755Z,3.30
2022-07-29T03:28:05.321Z,2.97
2022-07-29T03:30:31.661Z,3.13
2022-07-29T03:32:58.796Z,4.00
2022-07-29T03:35:25.654Z,2.40
2022-07-29T03:37:51.951Z,2.70
2022-07-29T03:40:23.594Z,2.30
2022-07-29T03:42:52.534Z,2.87
2022-07-29T03:45:19.536Z,3.00
2022-07-29T03:48:00.622Z,2.70
2022-07-29T03:50:29.762Z,3.90
2022-07-29T03:52:56.395Z,2.83
2022-07-29T03:55:22.957Z,5.00
2022-07-29T03:57:51.367Z,3.03
2022-07-29T04:00:18.527Z,3.00
2022-07-29T04:02:49.044Z,3.47
2022-07-29T04:05:16.690Z,2.40
2022-07-29T04:07:47.350Z,2.70
2022-07-29T04:10:14.314Z,2.73
2022-07-29T04:12:40.879Z,2.70
2022-07-29T04:15:07.986Z,3.30
2022-07-29T04:17:34.729Z,2.80
2022-07-29T04:20:01.061Z,3.67
2022-07-29T04:22:27.369Z,2.50
2022-07-29T04:24:53.901Z,2.70
2022-07-29T04:27:20.283Z,3.03
2022-07-29T04:29:56.596Z,3.30
2022-07-29T04:32:24.430Z,2.70
2022-07-29T04:34:50.778Z,2.80
2022-07-29T04:37:17.153Z,3.23
2022-07-29T04:39:43.541Z,3.50
2022-07-29T04:42:09.904Z,3.83
2022-07-29T04:44:37.188Z,3.10
2022-07-29T04:47:08.340Z,5.77
2022-07-29T04:49:34.734Z,7.53
2022-07-29T04:52:01.140Z,4.80
2022-07-29T04:54:27.537Z,2.90
2022-07-29T04:56:53.838Z,3.20
2022-07-29T04:59:20.196Z,3.00
2022-07-29T05:01:46.543Z,3.13
2022-07-29T05:04:13.358Z,4.17
2022-07-29T05:06:40.170Z,4.03
2022-07-29T05:09:06.652Z,3.70
2022-07-29T05:11:33.070Z,4.20
2022-07-29T05:13:59.418Z,3.40
2022-07-29T05:16:25.848Z,2.80
2022-07-29T05:18:52.230Z,2.73
2022-07-29T05:21:18.591Z,3.43
2022-07-29T05:23:44.949Z,2.90
2022-07-29T05:26:11.304Z,2.90
2022-07-29T05:28:38.625Z,3.83
2022-07-29T05:31:05.009Z,2.90
2022-07-29T05:33:35.515Z,3.03
2022-07-29T05:36:06.276Z,3.13
2022-07-29T05:38:32.646Z,3.00
2022-07-29T05:41:00.145Z,2.43
2022-07-29T05:43:28.220Z,3.70
2022-07-29T05:45:54.660Z,12.87
2022-07-29T05:48:20.989Z,3.17
2022-07-29T05:50:47.410Z,3.07
2022-07-29T05:53:19.389Z,2.60
2022-07-29T05:55:46.707Z,4.33
2022-07-29T05:58:13.312Z,3.80
2022-07-29T06:00:39.730Z,3.47
2022-07-29T06:03:06.377Z,3.00
2022-07-29T06:05:32.726Z,2.97
2022-07-29T06:07:59.036Z,2.97
2022-07-29T06:10:27.013Z,2.90
2022-07-29T06:12:54.311Z,2.50
2022-07-29T06:15:20.672Z,3.60
2022-07-29T06:18:00.743Z,2.70
2022-07-29T06:20:32.154Z,3.23
2022-07-29T06:22:58.876Z,2.90
2022-07-29T06:25:25.250Z,3.43
2022-07-29T06:27:51.654Z,6.73
2022-07-29T06:30:18.021Z,3.30
2022-07-29T06:32:44.379Z,3.33
2022-07-29T06:37:59.654Z,3.80
2022-07-29T06:40:45.163Z,3.97
2022-07-29T06:43:11.733Z,5.20
2022-07-29T06:45:41.842Z,4.40
2022-07-29T06:48:08.408Z,3.63
2022-07-29T06:50:34.942Z,4.10
2022-07-29T06:53:01.416Z,4.07
2022-07-29T06:55:30.318Z,4.00
2022-07-29T06:57:56.697Z,3.90
2022-07-29T07:00:23.034Z,4.33
2022-07-29T07:02:49.457Z,4.73
2022-07-29T07:05:15.887Z,4.27
2022-07-29T07:07:42.245Z,4.37
2022-07-29T07:10:08.724Z,3.93
2022-07-29T07:12:35.083Z,3.10
2022-07-29T07:15:01.421Z,3.87
2022-07-29T07:17:27.783Z,4.40
2022-07-29T07:19:54.156Z,3.93
2022-07-29T07:22:20.505Z,4.23
2022-07-29T07:24:46.787Z,4.37
2022-07-29T07:27:13.107Z,4.57
2022-07-29T07:29:41.985Z,4.60
2022-07-29T07:32:10.622Z,5.60
2022-07-29T07:34:38.653Z,4.53
2022-07-29T07:37:05.254Z,4.83
2022-07-29T07:39:31.580Z,8.43
2022-07-29T07:41:57.970Z,8.63
2022-07-29T07:44:24.561Z,3.77
2022-07-29T07:46:50.899Z,4.53
2022-07-29T07:49:17.280Z,4.27
2022-07-29T07:51:43.673Z,4.50
2022-07-29T07:54:17.759Z,3.77
2022-07-29T07:56:44.461Z,5.90
2022-07-29T07:59:10.815Z,3.73
2022-07-29T08:01:48.063Z,4.07
2022-07-29T08:04:27.486Z,4.23
2022-07-29T08:06:55.187Z,4.93
2022-07-29T08:09:29.264Z,4.30
2022-07-29T08:11:57.315Z,4.13
2022-07-29T08:14:23.601Z,6.23
2022-07-29T08:16:50.177Z,3.63
2022-07-29T08:19:16.607Z,3.77
2022-07-29T08:21:43.025Z,4.00
2022-07-29T08:24:27.812Z,3.60
2022-07-29T08:26:54.265Z,3.97
2022-07-29T08:29:20.601Z,3.30
2022-07-29T08:31:47.123Z,7.53
2022-07-29T08:34:13.520Z,5.20
2022-07-29T08:36:39.800Z,3.47
2022-07-29T08:39:06.211Z,3.13
2022-07-29T08:41:32.593Z,2.87
2022-07-29T08:43:58.972Z,3.93
2022-07-29T08:46:25.274Z,2.93
2022-07-29T08:48:51.826Z,3.13
2022-07-29T08:51:19.322Z,3.20
2022-07-29T08:53:48.233Z,3.30
2022-07-29T08:56:15.272Z,3.73
2022-07-29T08:58:42.309Z,3.40
2022-07-29T09:01:14.727Z,2.87
2022-07-29T09:03:43.994Z,3.77
2022-07-29T09:06:14.546Z,3.87
2022-07-29T09:08:41.748Z,3.43
2022-07-29T09:11:08.405Z,4.13
2022-07-29T09:13:35.097Z,5.60
2022-07-29T09:16:08.896Z,5.23
2022-07-29T09:18:38.822Z,5.63
2022-07-29T09:21:35.580Z,3.27
2022-07-29T09:24:07.938Z,3.13
2022-07-29T09:26:35.992Z,3.70
2022-07-29T09:29:12.538Z,2.70
2022-07-29T09:31:42.272Z,3.60
2022-07-29T09:34:09.466Z,3.03
2022-07-29T09:36:39.741Z,3.43
2022-07-29T09:39:06.121Z,5.70
2022-07-29T09:41:49.269Z,2.97
2022-07-29T09:44:16.029Z,3.30
2022-07-29T09:46:54.940Z,3.40
2022-07-29T09:49:21.559Z,2.97
2022-07-29T09:51:48.369Z,3.57
2022-07-29T09:54:24.348Z,5.27
2022-07-29T09:56:51.039Z,7.10
2022-07-29T09:59:17.837Z,3.70
2022-07-29T10:01:44.232Z,4.03
2022-07-29T10:04:10.532Z,3.90
2022-07-29T10:07:03.599Z,3.70
2022-07-29T10:09:31.655Z,3.40
2022-07-29T10:12:08.273Z,3.53
2022-07-29T10:14:34.666Z,4.10
2022-07-29T10:17:01.987Z,4.87
2022-07-29T10:19:32.605Z,4.03
2022-07-29T10:22:00.441Z,4.30
2022-07-29T10:24:28.730Z,4.10
2022-07-29T10:26:56.911Z,4.50
2022-07-29T10:29:24.154Z,4.43
2022-07-29T10:32:09.553Z,4.07
2022-07-29T10:35:13.468Z,5.73
2022-07-29T10:38:18.323Z,5.17
2022-07-29T10:41:19.461Z,4.47
2022-07-29T10:43:48.837Z,4.20
2022-07-29T10:46:19.312Z,8.30
2022-07-29T10:49:04.714Z,4.27
2022-07-29T10:51:53.990Z,4.70
2022-07-29T10:54:42.486Z,5.47
2022-07-29T10:57:14.393Z,6.17
2022-07-29T10:59:41.536Z,5.03
2022-07-29T11:02:42.226Z,5.07
2022-07-29T11:05:12.855Z,4.63
2022-07-29T11:08:00.457Z,5.40
2022-07-29T11:10:31.364Z,5.80
2022-07-29T11:12:59.045Z,5.40
2022-07-29T11:15:25.400Z,5.63
2022-07-29T11:17:55.117Z,5.80
2022-07-29T11:20:33.269Z,5.63
2022-07-29T11:23:00.004Z,4.93
2022-07-29T11:25:50.689Z,6.03
2022-07-29T11:28:22.791Z,8.43
2022-07-29T11:30:54.460Z,4.67
2022-07-29T11:33:54.113Z,5.20
2022-07-29T11:36:27.972Z,5.37
2022-07-29T11:39:27.181Z,4.93
2022-07-29T11:42:33.081Z,5.73
2022-07-29T11:45:42.562Z,4.63
2022-07-29T11:48:27.792Z,5.30
2022-07-29T11:50:48.229Z,4.50
2022-07-29T11:53:15.244Z,4.43
2022-07-29T11:55:50.898Z,4.57
2022-07-29T11:58:22.077Z,4.33
2022-07-29T12:00:52.428Z,4.40
2022-07-29T12:03:34.949Z,4.67
2022-07-29T12:06:04.021Z,4.73
2022-07-29T12:08:30.618Z,3.77
2022-07-29T12:10:57.107Z,4.10
2022-07-29T12:13:37.833Z,2.80
2022-07-29T12:16:04.988Z,3.50
2022-07-29T12:18:31.874Z,5.93
2022-07-29T12:20:59.331Z,3.17
2022-07-29T12:23:34.717Z,4.27
2022-07-29T12:26:01.793Z,3.33
2022-07-29T12:28:28.364Z,2.93
2022-07-29T12:30:54.771Z,3.03
2022-07-29T12:33:28.306Z,3.53
2022-07-29T12:36:06.082Z,3.27
2022-07-29T12:38:35.661Z,2.80
2022-07-29T12:41:02.469Z,3.13
2022-07-29T12:43:31.108Z,4.07
2022-07-29T12:45:58.074Z,3.17
2022-07-29T12:48:35.368Z,2.57
2022-07-29T12:51:03.607Z,2.50
2022-07-29T12:53:30.136Z,3.37
2022-07-29T12:55:57.466Z,2.93
2022-07-29T12:58:40.324Z,4.63
2022-07-29T13:01:16.950Z,3.20
2022-07-29T13:04:04.979Z,3.20
2022-07-29T13:06:35.899Z,7.83
2022-07-29T13:09:08.373Z,2.73
2022-07-29T13:11:34.731Z,3.03
2022-07-29T13:14:05.940Z,3.00
2022-07-29T13:16:33.611Z,2.73
2022-07-29T13:19:10.380Z,2.90
2022-07-29T13:21:37.303Z,3.10
2022-07-29T13:24:05.100Z,3.23
2022-07-29T13:26:31.437Z,2.80
2022-07-29T13:28:58.102Z,2.70
2022-07-29T13:31:24.531Z,3.00
2022-07-29T13:33:51.140Z,2.67
2022-07-29T13:36:19.448Z,4.17
2022-07-29T13:38:45.928Z,3.70
2022-07-29T13:41:12.502Z,3.43
2022-07-29T13:43:39.138Z,3.97
2022-07-29T13:46:05.624Z,5.70
2022-07-29T13:48:32.066Z,6.23
2022-07-29T13:50:58.944Z,6.43
2022-07-29T13:53:26.755Z,3.77
2022-07-29T13:55:54.102Z,3.70
2022-07-29T13:58:20.444Z,3.37
2022-07-29T14:00:47.568Z,4.10
2022-07-29T14:03:13.961Z,3.53
2022-07-29T14:05:40.355Z,3.67
2022-07-29T14:08:06.777Z,3.67
2022-07-29T14:10:33.224Z,3.40
2022-07-29T14:12:59.561Z,3.60
2022-07-29T14:15:25.980Z,3.83
2022-07-29T14:17:52.332Z,3.67
2022-07-29T14:20:18.868Z,3.37
2022-07-29T14:22:45.730Z,3.50
2022-07-29T14:25:14.413Z,3.60
2022-07-29T14:27:42.042Z,3.33
2022-07-29T14:30:08.858Z,3.90
2022-07-29T14:32:35.273Z,5.83
2022-07-29T14:35:01.730Z,3.60
2022-07-29T14:37:28.298Z,3.60
2022-07-29T14:40:07.472Z,3.83
2022-07-29T14:42:33.952Z,5.20
2022-07-29T14:45:00.304Z,5.00
2022-07-29T14:47:26.834Z,5.17
2022-07-29T14:49:53.531Z,4.27
2022-07-29T14:52:19.992Z,9.57
2022-07-29T14:54:46.468Z,6.20
2022-07-29T14:57:12.928Z,5.37
2022-07-29T14:59:39.391Z,3.93
2022-07-29T15:02:05.773Z,4.73
2022-07-29T15:04:32.289Z,4.17
2022-07-29T15:06:58.786Z,4.23
2022-07-29T15:09:25.194Z,3.03
2022-07-29T15:11:51.701Z,6.00
2022-07-29T15:14:18.058Z,3.67
2022-07-29T15:16:47.926Z,5.10
2022-07-29T15:19:14.771Z,3.50
2022-07-29T15:21:47.900Z,5.50
2022-07-29T15:24:26.060Z,3.83
2022-07-29T15:26:52.500Z,6.73
2022-07-29T15:29:20.006Z,4.83
2022-07-29T15:31:46.509Z,4.37
2022-07-29T15:34:13.036Z,4.57
2022-07-29T15:36:52.139Z,3.90
2022-07-29T15:39:20.574Z,3.47
2022-07-29T15:41:47.398Z,3.47
2022-07-29T15:44:13.792Z,5.00
2022-07-29T15:46:59.490Z,9.23
2022-07-29T15:49:31.796Z,2.80
2022-07-29T15:52:17.081Z,6.63
2022-07-29T15:54:43.609Z,4.37
2022-07-29T15:57:10.135Z,2.90
2022-07-29T15:59:36.646Z,4.30
2022-07-29T16:02:04.092Z,4.60
2022-07-29T16:04:31.904Z,4.53
2022-07-29T16:06:58.744Z,4.33
2022-07-29T16:09:26.276Z,4.63
2022-07-29T16:11:53.898Z,7.67
2022-07-29T16:14:20.857Z,3.83
2022-07-29T16:16:47.545Z,3.90
2022-07-29T16:19:14.567Z,4.43
2022-07-29T16:21:41.062Z,5.57
2022-07-29T16:24:07.868Z,5.17
2022-07-29T16:26:35.234Z,4.27
2022-07-29T16:29:01.574Z,3.97
2022-07-29T16:31:28.154Z,3.97
2022-07-29T16:33:55.951Z,3.07
2022-07-29T16:36:22.489Z,2.57
2022-07-29T16:38:49.357Z,8.07
2022-07-29T16:41:15.864Z,4.20
2022-07-29T16:43:42.544Z,3.20
2022-07-29T16:46:09.394Z,3.17
2022-07-29T16:48:40.618Z,2.80
2022-07-29T16:51:08.060Z,3.93
2022-07-29T16:53:34.708Z,3.63
2022-07-29T16:56:01.855Z,3.40
2022-07-29T16:58:28.679Z,3.30
2022-07-29T17:00:55.489Z,4.00
2022-07-29T17:03:21.996Z,4.47
2022-07-29T17:05:52.279Z,3.73
2022-07-29T17:08:21.090Z,4.20
2022-07-29T17:10:47.740Z,3.73
2022-07-29T17:13:14.410Z,4.00
2022-07-29T17:15:42.446Z,4.27
2022-07-29T17:18:12.311Z,4.43
2022-07-29T17:20:39.218Z,7.40
2022-07-29T17:23:05.547Z,4.70
2022-07-29T17:25:32.124Z,6.27
2022-07-29T17:28:01.073Z,4.40
2022-07-29T17:30:28.322Z,8.13
2022-07-29T17:32:54.967Z,4.83
2022-07-29T17:35:40.039Z,3.30
2022-07-29T17:38:06.409Z,3.77
2022-07-29T17:40:32.875Z,3.93
2022-07-29T17:42:59.235Z,11.00
2022-07-29T17:45:25.614Z,3.63
2022-07-29T17:47:51.925Z,6.23
2022-07-29T17:50:18.388Z,3.30
2022-07-29T17:52:44.704Z,6.90
2022-07-29T17:55:13.177Z,3.37
2022-07-29T17:57:39.568Z,3.57
2022-07-29T18:00:08.317Z,3.10
2022-07-29T18:02:37.386Z,3.10
2022-07-29T18:05:04.954Z,3.40
2022-07-29T18:07:31.422Z,3.50
2022-07-29T18:10:00.519Z,3.20
2022-07-29T18:12:27.507Z,3.77
2022-07-29T18:14:53.938Z,6.70
2022-07-29T18:17:20.328Z,4.80
2022-07-29T18:19:48.079Z,3.73
2022-07-29T18:22:15.142Z,3.67
2022-07-29T18:24:41.769Z,3.40
2022-07-29T18:27:08.209Z,8.67
2022-07-29T18:29:34.814Z,4.47
2022-07-29T18:32:01.612Z,3.83
2022-07-29T18:34:28.298Z,2.87
2022-07-29T18:36:54.784Z,4.00
2022-07-29T18:39:21.496Z,4.53
2022-07-29T18:41:50.448Z,3.73
2022-07-29T18:44:18.064Z,5.23
2022-07-29T18:46:47.304Z,10.27
2022-07-29T18:49:14.613Z,3.40
2022-07-29T18:51:41.065Z,3.77
2022-07-29T18:54:09.075Z,3.63
2022-07-29T18:56:35.670Z,3.07
2022-07-29T18:59:02.951Z,3.03
2022-07-29T19:01:31.604Z,2.70
2022-07-29T19:03:58.920Z,2.97
2022-07-29T19:06:25.904Z,3.07
2022-07-29T19:08:52.449Z,2.83
2022-07-29T19:11:18.956Z,3.10
2022-07-29T19:13:45.296Z,3.20
2022-07-29T19:16:13.832Z,2.67
2022-07-29T19:18:40.710Z,3.37
2022-07-29T19:21:07.279Z,5.80
2022-07-29T19:24:01.758Z,2.87
2022-07-29T19:26:20.881Z,2.73
2022-07-29T19:28:48.838Z,2.80
2022-07-29T19:31:15.818Z,2.87
2022-07-29T19:33:42.467Z,3.80
2022-07-29T19:36:08.937Z,3.13
2022-07-29T19:38:35.358Z,3.73
2022-07-29T19:41:01.754Z,3.07
2022-07-29T19:43:49.687Z,3.87
2022-07-29T19:46:14.585Z,3.23
2022-07-29T19:48:41.053Z,3.10
2022-07-29T19:51:07.533Z,3.00
2022-07-29T19:53:33.969Z,3.20
2022-07-29T19:56:00.279Z,3.40
2022-07-29T19:58:27.065Z,4.30
2022-07-29T20:00:53.722Z,4.20
2022-07-29T20:03:20.099Z,3.53
2022-07-29T20:05:47.869Z,4.20
2022-07-29T20:08:14.663Z,4.07
2022-07-29T20:10:41.101Z,3.70
2022-07-29T20:13:07.475Z,3.20
2022-07-29T20:15:33.844Z,5.13
2022-07-29T20:18:00.298Z,4.30
2022-07-29T20:20:27.024Z,4.83
2022-07-29T20:22:53.932Z,4.43
2022-07-29T20:25:20.321Z,4.87
2022-07-29T20:27:46.615Z,4.10
2022-07-29T20:30:14.032Z,3.97
2022-07-29T20:32:41.239Z,4.30
2022-07-29T20:35:08.708Z,5.17
2022-07-29T20:37:35.249Z,4.27
2022-07-29T20:40:21.654Z,4.97
2022-07-29T20:42:48.035Z,5.00
2022-07-29T20:45:14.471Z,5.23
2022-07-29T20:47:40.972Z,5.53
2022-07-29T20:50:09.757Z,6.00
2022-07-29T20:52:36.158Z,5.13
2022-07-29T20:55:02.581Z,5.67
2022-07-29T20:57:39.243Z,5.80
2022-07-29T21:00:06.988Z,4.90
2022-07-29T21:02:33.398Z,4.30
2022-07-29T21:04:59.854Z,5.17
2022-07-29T21:07:26.127Z,5.70
2022-07-29T21:09:52.498Z,6.77
2022-07-29T21:12:19.034Z,6.20
2022-07-29T21:14:48.194Z,7.10
2022-07-29T21:17:15.354Z,6.00
2022-07-29T21:19:42.120Z,6.53
2022-07-29T21:22:08.714Z,6.17
2022-07-29T21:24:35.165Z,6.50
2022-07-29T21:27:21.563Z,7.20
2022-07-29T21:29:49.109Z,6.77
2022-07-29T21:32:30.016Z,6.47
2022-07-29T21:34:56.599Z,7.27
2022-07-29T21:37:23.014Z,6.77
2022-07-29T21:39:49.320Z,10.40
2022-07-29T21:42:15.858Z,7.37
2022-07-29T21:44:42.203Z,7.43
2022-07-29T21:47:09.499Z,6.83
2022-07-29T21:49:36.278Z,7.97
2022-07-29T21:52:04.223Z,6.63
2022-07-29T21:54:31.509Z,7.47
2022-07-29T21:56:58.336Z,6.27
2022-07-29T21:59:25.121Z,7.07
2022-07-29T22:01:51.571Z,6.63
2022-07-29T22:04:18.125Z,6.27
2022-07-29T22:06:44.548Z,7.73
2022-07-29T22:09:11.038Z,7.10
2022-07-29T22:11:37.450Z,6.83
2022-07-29T22:14:04.615Z,7.67
2022-07-29T22:16:31.125Z,7.07
2022-07-29T22:18:57.526Z,7.77
2022-07-29T22:21:23.939Z,6.70
2022-07-29T22:23:50.336Z,7.00
2022-07-29T22:26:16.725Z,6.63
2022-07-29T22:28:43.083Z,7.27
2022-07-29T22:31:09.548Z,7.10
2022-07-29T22:33:35.966Z,7.27
2022-07-29T22:36:02.369Z,8.10
2022-07-29T22:38:28.737Z,7.27
2022-07-29T22:40:55.159Z,8.10
2022-07-29T22:43:27.154Z,7.23
2022-07-29T22:45:53.514Z,8.87
2022-07-29T22:48:20.007Z,8.57
2022-07-29T22:50:46.389Z,7.23
2022-07-29T22:53:12.716Z,8.43
2022-07-29T22:55:39.047Z,8.83
2022-07-29T22:58:05.370Z,9.87
2022-07-29T23:00:31.733Z,9.37
2022-07-29T23:02:58.123Z,8.50
2022-07-29T23:05:24.503Z,8.97
2022-07-29T23:07:50.848Z,8.87
2022-07-29T23:10:17.468Z,9.50
2022-07-29T23:12:43.852Z,8.73
2022-07-29T23:15:10.159Z,9.80
2022-07-29T23:17:37.007Z,9.13
2022-07-29T23:20:08.791Z,8.87
2022-07-29T23:22:36.393Z,6.87
2022-07-29T23:25:04.817Z,8.43
2022-07-29T23:27:31.186Z,8.37
2022-07-29T23:29:57.556Z,8.70
2022-07-29T23:32:23.908Z,7.77
2022-07-29T23:34:50.267Z,7.07
2022-07-29T23:37:16.750Z,7.83
2022-07-29T23:39:43.037Z,8.97
2022-07-29T23:42:09.425Z,10.13
2022-07-29T23:44:35.970Z,7.33
2022-07-29T23:47:02.783Z,7.23
2022-07-29T23:49:29.543Z,7.00
2022-07-29T23:51:55.918Z,6.97
2022-07-29T23:54:22.276Z,6.67
2022-07-29T23:56:48.649Z,6.97
2022-07-29T23:59:15.048Z,7.17
